createdAt,value
2022-07-28T00:04:52.944Z,70.99
2022-07-28T00:09:56.926Z,71.84
2022-07-28T00:14:53.816Z,73.50
2022-07-28T00:19:52.767Z,72.89
2022-07-28T00:24:52.695Z,73.30
2022-07-28T00:29:52.625Z,72.48
2022-07-28T00:34:52.839Z,71.77
2022-07-28T00:39:52.484Z,69.20
2022-07-28T00:44:52.416Z,69.71
2022-07-28T00:49:52.353Z,70.15
2022-07-28T00:54:52.277Z,71.53
2022-07-28T00:59:52.560Z,73.67
2022-07-28T01:04:52.137Z,73.97
2022-07-28T01:09:52.119Z,75.13
2022-07-28T01:14:52.017Z,76.08
2022-07-28T01:19:51.975Z,73.63
2022-07-28T01:24:51.890Z,71.77
2022-07-28T01:29:51.828Z,73.26
2022-07-28T01:34:51.756Z,75.71
2022-07-28T01:39:51.687Z,77.17
2022-07-28T01:44:51.625Z,77.44
2022-07-28T01:49:51.556Z,75.84
2022-07-28T01:54:51.486Z,74.08
2022-07-28T01:59:51.427Z,75.84
2022-07-28T02:04:51.508Z,75.02
2022-07-28T02:09:51.305Z,76.39
2022-07-28T02:14:51.251Z,77.24
2022-07-28T02:19:51.192Z,77.58
2022-07-28T02:24:51.097Z,77.24
2022-07-28T02:29:51.800Z,77.98
2022-07-28T02:34:50.967Z,76.42
2022-07-28T02:39:55.150Z,74.93
2022-07-28T02:44:51.828Z,76.83
2022-07-28T02:49:50.767Z,77.27
2022-07-28T02:54:50.710Z,77.68
2022-07-28T02:59:50.646Z,78.53
2022-07-28T03:04:50.649Z,76.87
2022-07-28T03:09:50.780Z,78.57
2022-07-28T03:14:50.467Z,80.00
2022-07-28T03:19:50.386Z,75.84
2022-07-28T03:24:50.321Z,71.87
2022-07-28T03:29:50.289Z,72.89
2022-07-28T03:34:50.188Z,71.50
2022-07-28T03:39:50.127Z,75.40
2022-07-28T03:44:50.066Z,74.41
2022-07-28T03:49:50.001Z,77.58
2022-07-28T03:54:49.924Z,75.06
2022-07-28T03:59:49.859Z,75.95
2022-07-28T04:04:49.811Z,76.42
2022-07-28T04:09:49.738Z,74.76
2022-07-28T04:14:49.778Z,71.97
2022-07-28T04:19:49.620Z,69.30
2022-07-28T04:24:49.528Z,73.23
2022-07-28T04:29:49.467Z,68.52
2022-07-28T04:34:49.410Z,57.20
2022-07-28T04:39:49.339Z,52.37
2022-07-28T04:44:49.270Z,49.89
2022-07-28T04:49:49.225Z,46.62
2022-07-28T04:54:49.131Z,44.38
2022-07-28T04:59:49.083Z,45.31
2022-07-28T05:04:49.059Z,44.05
2022-07-28T05:09:48.965Z,43.05
2022-07-28T05:14:48.924Z,44.03
2022-07-28T05:19:48.851Z,44.63
2022-07-28T05:24:48.765Z,45.23
2022-07-28T05:29:48.689Z,44.53
2022-07-28T05:34:48.622Z,43.87
2022-07-28T05:39:48.661Z,41.24
2022-07-28T05:44:48.514Z,40.84
2022-07-28T05:49:48.455Z,41.69
2022-07-28T05:54:48.407Z,43.89
2022-07-28T05:59:48.349Z,44.31
2022-07-28T06:04:48.257Z,44.38
2022-07-28T06:09:48.208Z,41.97
2022-07-28T06:14:48.128Z,40.22
2022-07-28T06:19:48.088Z,42.21
2022-07-28T06:24:48.192Z,43.57
2022-07-28T06:29:47.967Z,40.01
2022-07-28T06:34:47.881Z,38.98
2022-07-28T06:39:47.837Z,40.42
2022-07-28T06:44:58.228Z,40.26
2022-07-28T06:49:48.680Z,42.75
2022-07-28T06:54:48.719Z,42.37
2022-07-28T06:59:47.558Z,43.79
2022-07-28T07:04:47.554Z,41.38
2022-07-28T07:09:47.450Z,39.41
2022-07-28T07:14:47.375Z,39.43
2022-07-28T07:19:47.310Z,37.51
2022-07-28T07:24:47.245Z,36.72
2022-07-28T07:29:47.213Z,38.15
2022-07-28T07:34:47.105Z,38.15
2022-07-28T07:39:47.057Z,38.24
2022-07-28T07:44:50.225Z,36.88
2022-07-28T07:49:46.963Z,34.10
2022-07-28T07:54:46.871Z,32.67
2022-07-28T07:59:46.801Z,33.38
2022-07-28T08:04:46.787Z,33.91
2022-07-28T08:09:46.695Z,34.31
2022-07-28T08:14:47.825Z,34.84
2022-07-28T08:19:46.571Z,36.31
2022-07-28T08:24:46.497Z,35.04
2022-07-28T08:29:46.433Z,34.18
2022-07-28T08:34:46.398Z,35.38
2022-07-28T08:39:46.329Z,34.38
2022-07-28T08:44:46.277Z,34.39
2022-07-28T08:49:46.205Z,33.70
2022-07-28T08:54:46.117Z,34.84
2022-07-28T08:59:46.056Z,35.37
2022-07-28T09:04:45.998Z,36.66
2022-07-28T09:09:45.936Z,36.38
2022-07-28T09:14:45.878Z,36.38
2022-07-28T09:19:45.811Z,38.59
2022-07-28T09:24:45.753Z,37.98
2022-07-28T09:29:45.708Z,39.53
2022-07-28T09:34:45.792Z,39.83
2022-07-28T09:39:45.893Z,40.12
2022-07-28T09:45:05.865Z,40.02
2022-07-28T09:49:46.475Z,39.03
2022-07-28T09:54:45.359Z,39.94
2022-07-28T09:59:50.827Z,38.71
2022-07-28T10:04:46.241Z,38.06
2022-07-28T10:09:45.167Z,37.68
2022-07-28T10:14:45.100Z,39.61
2022-07-28T10:19:45.028Z,38.37
2022-07-28T10:24:44.971Z,38.77
2022-07-28T10:29:44.901Z,36.47
2022-07-28T10:34:44.843Z,36.98
2022-07-28T10:39:44.772Z,36.78
2022-07-28T10:44:44.733Z,36.80
2022-07-28T10:49:44.675Z,37.68
2022-07-28T10:54:44.586Z,35.36
2022-07-28T10:59:44.515Z,36.35
2022-07-28T11:04:44.459Z,37.16
2022-07-28T11:09:44.388Z,35.97
2022-07-28T11:14:44.317Z,35.77
2022-07-28T11:20:16.349Z,36.70
2022-07-28T11:24:45.189Z,35.75
2022-07-28T11:29:44.131Z,35.46
2022-07-28T11:34:44.064Z,36.55
2022-07-28T11:39:45.289Z,34.73
2022-07-28T11:44:43.962Z,35.74
2022-07-28T11:49:44.207Z,34.81
2022-07-28T11:54:43.796Z,35.34
2022-07-28T11:59:43.737Z,35.66
2022-07-28T12:04:43.757Z,35.06
2022-07-28T12:09:43.628Z,35.94
2022-07-28T12:14:43.578Z,36.04
2022-07-28T12:19:43.502Z,34.84
2022-07-28T12:24:45.946Z,35.83
2022-07-28T12:29:43.367Z,35.83
2022-07-28T12:34:43.297Z,35.74
2022-07-28T12:39:43.526Z,35.44
2022-07-28T12:44:43.173Z,36.11
2022-07-28T12:49:43.160Z,34.52
2022-07-28T12:54:43.191Z,35.13
2022-07-28T12:59:44.006Z,35.32
2022-07-28T13:04:42.895Z,35.21
2022-07-28T13:09:42.847Z,34.23
2022-07-28T13:14:42.778Z,35.52
2022-07-28T13:19:42.757Z,35.50
2022-07-28T13:24:42.637Z,34.91
2022-07-28T13:29:42.561Z,34.61
2022-07-28T13:34:42.574Z,32.93
2022-07-28T13:39:42.458Z,34.41
2022-07-28T13:44:42.432Z,34.22
2022-07-28T13:49:42.424Z,34.22
2022-07-28T13:54:42.265Z,33.92
2022-07-28T13:59:42.196Z,33.34
2022-07-28T14:04:42.117Z,32.82
2022-07-28T14:09:42.056Z,33.62
2022-07-28T14:14:48.076Z,34.31
2022-07-28T14:19:42.922Z,33.21
2022-07-28T14:24:42.906Z,32.71
2022-07-28T14:29:41.781Z,32.51
2022-07-28T14:34:41.744Z,33.12
2022-07-28T14:39:41.663Z,33.01
2022-07-28T14:44:41.583Z,32.91
2022-07-28T14:49:58.086Z,32.31
2022-07-28T14:54:42.473Z,33.31
2022-07-28T14:59:41.397Z,33.61
2022-07-28T15:04:41.496Z,33.70
2022-07-28T15:09:43.489Z,32.71
2022-07-28T15:14:42.229Z,33.21
2022-07-28T15:19:41.169Z,38.17
2022-07-28T15:24:41.161Z,33.19
2022-07-28T15:29:41.949Z,34.28
2022-07-28T15:34:41.009Z,34.28
2022-07-28T15:39:45.062Z,34.28
2022-07-28T15:44:40.812Z,33.70
2022-07-28T15:49:40.766Z,34.59
2022-07-28T15:54:40.787Z,33.09
2022-07-28T15:59:49.322Z,33.09
2022-07-28T16:04:47.126Z,32.30
2022-07-28T16:09:45.951Z,32.61
2022-07-28T16:14:41.821Z,33.61
2022-07-28T16:19:49.361Z,34.00
2022-07-28T16:24:41.469Z,33.21
2022-07-28T16:29:40.244Z,32.53
2022-07-28T16:34:40.220Z,34.52
2022-07-28T16:39:40.183Z,33.33
2022-07-28T16:44:40.036Z,33.52
2022-07-28T16:49:45.524Z,33.64
2022-07-28T16:54:40.914Z,32.35
2022-07-28T16:59:48.102Z,32.94
2022-07-28T17:04:40.819Z,32.84
2022-07-28T17:09:39.731Z,32.84
2022-07-28T17:14:39.728Z,32.64
2022-07-28T17:19:46.489Z,32.66
2022-07-28T17:24:40.570Z,33.75
2022-07-28T17:29:39.471Z,33.45
2022-07-28T17:34:39.404Z,33.17
2022-07-28T17:39:39.402Z,32.67
2022-07-28T17:44:39.290Z,32.67
2022-07-28T17:49:43.542Z,33.59
2022-07-28T17:54:40.302Z,33.88
2022-07-28T17:59:51.665Z,32.89
2022-07-28T18:04:40.011Z,34.08
2022-07-28T18:09:38.941Z,33.98
2022-07-28T18:14:38.877Z,33.40
2022-07-28T18:19:42.218Z,33.40
2022-07-28T18:24:39.729Z,33.72
2022-07-28T18:29:38.994Z,33.62
2022-07-28T18:34:38.590Z,35.33
2022-07-28T18:39:38.528Z,35.63
2022-07-28T18:44:38.466Z,36.02
2022-07-28T18:49:38.429Z,34.55
2022-07-28T18:54:38.347Z,34.75
2022-07-28T18:59:43.326Z,34.36
2022-07-28T19:04:39.215Z,35.46
2022-07-28T19:09:38.878Z,36.57
2022-07-28T19:14:38.158Z,36.47
2022-07-28T19:19:38.031Z,36.39
2022-07-28T19:24:38.289Z,36.87
2022-07-28T19:29:37.910Z,36.29
2022-07-28T19:34:37.841Z,36.59
2022-07-28T19:39:40.454Z,37.19
2022-07-28T19:44:38.693Z,38.09
2022-07-28T19:49:37.702Z,38.80
2022-07-28T19:54:37.570Z,38.50
2022-07-28T19:59:37.492Z,39.90
2022-07-28T20:04:37.436Z,37.62
2022-07-28T20:09:37.373Z,37.79
2022-07-28T20:14:37.335Z,39.42
2022-07-28T20:19:37.314Z,37.88
2022-07-28T20:24:37.194Z,37.67
2022-07-28T20:29:37.502Z,37.17
2022-07-28T20:34:37.046Z,38.82
2022-07-28T20:39:44.908Z,39.02
2022-07-28T20:44:38.369Z,39.94
2022-07-28T20:49:36.869Z,40.16
2022-07-28T20:54:36.835Z,39.52
2022-07-28T20:59:36.699Z,40.56
2022-07-28T21:04:36.695Z,39.64
2022-07-28T21:09:36.571Z,40.89
2022-07-28T21:14:36.520Z,41.31
2022-07-28T21:19:36.430Z,41.82
2022-07-28T21:24:36.382Z,42.19
2022-07-28T21:29:36.327Z,43.13
2022-07-28T21:34:36.287Z,43.04
2022-07-28T21:39:36.221Z,42.10
2022-07-28T21:44:36.118Z,45.10
2022-07-28T21:49:36.074Z,46.15
2022-07-28T21:54:35.994Z,45.10
2022-07-28T21:59:35.917Z,44.98
2022-07-28T22:04:35.919Z,46.97
2022-07-28T22:09:37.980Z,48.22
2022-07-28T22:14:35.717Z,48.95
2022-07-28T22:19:35.656Z,49.35
2022-07-28T22:24:35.605Z,49.15
2022-07-28T22:29:35.520Z,49.13
2022-07-28T22:34:35.460Z,50.18
2022-07-28T22:39:35.559Z,50.48
2022-07-28T22:44:35.372Z,50.56
2022-07-28T22:49:35.268Z,49.22
2022-07-28T22:54:35.202Z,49.83
2022-07-28T22:59:39.152Z,49.83
2022-07-28T23:04:36.072Z,50.98
2022-07-28T23:09:35.014Z,52.64
2022-07-28T23:14:34.952Z,53.38
2022-07-28T23:19:34.887Z,54.63
2022-07-28T23:24:34.823Z,53.27
2022-07-28T23:29:34.754Z,51.79
2022-07-28T23:34:34.703Z,53.70
2022-07-28T23:39:34.625Z,56.81
2022-07-28T23:44:34.565Z,56.50
2022-07-28T23:49:34.483Z,57.21
2022-07-28T23:54:34.416Z,56.24
2022-07-28T23:59:34.349Z,55.11
